createdAt,value
2022-12-05T00:00:36.990Z,0.23
2022-12-05T00:06:01.996Z,0.23
2022-12-05T00:27:26.649Z,0.28
2022-12-05T00:32:51.694Z,0.21
2022-12-05T00:38:19.646Z,0.22
2022-12-05T00:43:47.814Z,0.18
2022-12-05T00:49:13.662Z,0.16
2022-12-05T00:54:38.653Z,0.18
2022-12-05T01:00:05.638Z,0.14
2022-12-05T01:05:30.674Z,0.17
2022-12-05T01:10:54.673Z,0.15
2022-12-05T01:16:27.829Z,0.17
2022-12-05T01:21:51.651Z,0.14
2022-12-05T01:27:22.644Z,0.13
2022-12-05T01:32:50.676Z,0.17
2022-12-05T01:38:14.835Z,0.13
2022-12-05T01:43:40.629Z,0.15
2022-12-05T01:49:10.636Z,0.13
2022-12-05T01:54:36.668Z,0.14
2022-12-05T02:00:04.658Z,0.15
2022-12-05T02:05:38.656Z,0.17
2022-12-05T02:11:05.714Z,0.16
2022-12-05T02:16:40.744Z,0.18
2022-12-05T02:22:31.667Z,0.18
2022-12-05T02:28:31.763Z,0.16
2022-12-05T02:34:02.796Z,0.12
2022-12-05T02:39:36.661Z,0.09
2022-12-05T02:45:05.679Z,0.06
2022-12-05T02:50:37.697Z,0.04
2022-12-05T02:56:02.744Z,0.03
2022-12-05T03:01:28.783Z,0.02
2022-12-05T03:07:00.675Z,-0.02
2022-12-05T03:12:29.718Z,-0.05
2022-12-05T03:18:00.683Z,-0.06
2022-12-05T03:23:38.804Z,-0.06
2022-12-05T03:29:18.697Z,-0.11
2022-12-05T03:34:52.710Z,-0.13
2022-12-05T03:40:35.786Z,-0.14
2022-12-05T03:46:04.878Z,-0.15
2022-12-05T03:51:32.697Z,-0.14
2022-12-05T03:57:04.903Z,-0.12
2022-12-05T04:02:35.706Z,-0.14
2022-12-05T04:08:02.799Z,-0.12
2022-12-05T04:13:36.684Z,-0.11
2022-12-05T04:19:15.913Z,-0.11
2022-12-05T04:24:54.740Z,-0.12
2022-12-05T04:30:25.715Z,-0.10
2022-12-05T04:35:55.729Z,-0.07
2022-12-05T04:41:23.746Z,-0.06
2022-12-05T04:46:55.035Z,-0.04
2022-12-05T04:52:23.726Z,-0.03
2022-12-05T04:57:54.734Z,-0.02
2022-12-05T05:03:36.764Z,0.01
2022-12-05T05:09:04.717Z,0.03
2022-12-05T05:14:28.752Z,0.05
2022-12-05T05:19:57.046Z,0.07
2022-12-05T05:25:28.763Z,0.07
2022-12-05T05:30:53.792Z,0.09
2022-12-05T05:36:23.720Z,0.11
2022-12-05T05:41:48.742Z,0.14
2022-12-05T05:47:12.756Z,0.14
2022-12-05T05:52:42.776Z,0.18
2022-12-05T05:58:06.754Z,0.19
2022-12-05T06:03:31.873Z,0.20
2022-12-05T06:09:01.768Z,0.21
2022-12-05T06:14:27.005Z,0.21
2022-12-05T06:19:50.781Z,0.22
2022-12-05T06:25:19.774Z,0.22
2022-12-05T06:30:43.779Z,0.22
2022-12-05T06:36:13.815Z,0.23
2022-12-05T06:41:41.790Z,0.24
2022-12-05T06:47:06.781Z,0.25
2022-12-05T06:52:30.790Z,0.27
2022-12-05T06:57:58.787Z,0.28
2022-12-05T07:03:22.802Z,0.29
2022-12-05T07:08:47.785Z,0.33
2022-12-05T07:14:38.777Z,0.34
2022-12-05T07:20:02.891Z,0.33
2022-12-05T07:25:29.800Z,0.36
2022-12-05T07:30:57.782Z,0.40
2022-12-05T07:36:25.870Z,0.41
2022-12-05T07:41:50.856Z,0.45
2022-12-05T07:47:18.961Z,0.49
2022-12-05T07:52:43.938Z,0.52
2022-12-05T07:58:07.780Z,0.57
2022-12-05T08:03:35.813Z,0.59
2022-12-05T08:09:00.802Z,0.62
2022-12-05T08:14:26.035Z,0.62
2022-12-05T08:19:52.776Z,0.63
2022-12-05T08:25:18.823Z,0.59
2022-12-05T08:30:42.826Z,0.65
2022-12-05T08:36:12.830Z,0.68
2022-12-05T08:41:37.851Z,0.67
2022-12-05T08:47:02.795Z,0.70
2022-12-05T08:52:30.801Z,0.71
2022-12-05T08:57:55.823Z,0.72
2022-12-05T09:03:19.813Z,0.77
2022-12-05T09:08:48.808Z,0.81
2022-12-05T09:14:14.816Z,0.85
2022-12-05T09:19:39.812Z,0.89
2022-12-05T09:25:06.847Z,0.89
2022-12-05T09:30:31.823Z,0.91
2022-12-05T09:35:55.844Z,0.89
2022-12-05T09:41:48.870Z,0.91
2022-12-05T09:47:17.929Z,0.89
2022-12-05T09:52:45.869Z,0.84
2022-12-05T09:58:15.835Z,0.89
2022-12-05T10:03:50.865Z,0.92
2022-12-05T10:09:29.072Z,1.00
2022-12-05T10:15:07.952Z,1.06
2022-12-05T10:20:36.868Z,1.15
2022-12-05T10:26:06.856Z,1.19
2022-12-05T10:31:38.995Z,1.21
2022-12-05T10:37:07.863Z,1.19
2022-12-05T10:42:41.871Z,1.23
2022-12-05T10:48:09.881Z,1.28
2022-12-05T10:53:38.935Z,1.31
2022-12-05T10:59:04.856Z,1.37
2022-12-05T11:04:44.920Z,1.38
2022-12-05T11:10:24.959Z,1.40
2022-12-05T11:15:56.008Z,1.36
2022-12-05T11:21:30.852Z,1.38
2022-12-05T11:27:02.095Z,1.38
2022-12-05T11:32:31.013Z,1.43
2022-12-05T11:38:02.868Z,1.47
2022-12-05T11:43:52.903Z,1.53
2022-12-05T11:49:31.871Z,1.54
2022-12-05T11:55:06.541Z,1.57
2022-12-05T12:00:36.906Z,1.60
2022-12-05T12:06:14.900Z,1.65
2022-12-05T12:11:47.880Z,1.69
2022-12-05T12:17:23.965Z,1.67
2022-12-05T12:23:09.015Z,1.66
2022-12-05T12:28:54.895Z,1.64
2022-12-05T12:34:38.872Z,1.57
2022-12-05T12:40:07.905Z,1.61
2022-12-05T12:45:56.955Z,1.57
2022-12-05T12:51:25.897Z,1.54
2022-12-05T12:57:08.172Z,1.52
2022-12-05T13:02:41.967Z,1.51
2022-12-05T13:08:13.995Z,1.55
2022-12-05T13:13:42.920Z,1.52
2022-12-05T13:19:11.903Z,1.59
2022-12-05T13:24:40.925Z,1.65
2022-12-05T13:30:13.553Z,1.72
2022-12-05T13:35:59.923Z,1.75
2022-12-05T13:41:37.916Z,1.75
2022-12-05T13:47:05.972Z,1.78
2022-12-05T13:52:36.998Z,1.78
2022-12-05T13:58:04.946Z,1.81
2022-12-05T14:04:04.952Z,1.83
2022-12-05T14:10:04.935Z,1.85
2022-12-05T14:15:41.939Z,1.85
2022-12-05T14:21:21.934Z,1.84
2022-12-05T14:27:15.003Z,1.87
2022-12-05T14:32:43.977Z,1.87
2022-12-05T14:38:13.002Z,1.83
2022-12-05T14:43:46.952Z,1.82
2022-12-05T14:49:48.449Z,1.82
2022-12-05T14:55:25.074Z,1.80
2022-12-05T15:00:56.056Z,1.80
2022-12-05T15:06:26.979Z,1.80
2022-12-05T15:11:51.969Z,1.77
2022-12-05T15:17:20.037Z,1.74
2022-12-05T15:22:46.967Z,1.69
2022-12-05T15:28:21.955Z,1.64
2022-12-05T15:34:01.067Z,1.58
2022-12-05T15:39:34.968Z,1.53
2022-12-05T15:45:00.270Z,1.47
2022-12-05T15:50:32.025Z,1.42
2022-12-05T15:55:59.942Z,1.40
2022-12-05T16:01:29.075Z,1.38
2022-12-05T16:06:59.019Z,1.33
2022-12-05T16:12:36.996Z,1.30
2022-12-05T16:18:04.981Z,1.27
2022-12-05T16:23:44.004Z,1.21
2022-12-05T16:29:15.975Z,1.17
2022-12-05T16:34:44.087Z,1.02
2022-12-05T16:40:13.235Z,0.89
2022-12-05T16:45:48.987Z,0.79
2022-12-05T16:51:35.020Z,0.76
2022-12-05T16:57:03.041Z,0.75
2022-12-05T17:02:31.088Z,0.74
2022-12-05T17:07:56.093Z,0.77
2022-12-05T17:13:23.067Z,0.77
2022-12-05T17:18:48.038Z,0.76
2022-12-05T17:24:13.033Z,0.77
2022-12-05T17:29:41.009Z,0.78
2022-12-05T17:35:07.077Z,0.78
2022-12-05T17:40:32.024Z,0.77
2022-12-05T17:46:01.011Z,0.75
2022-12-05T17:51:27.012Z,0.77
2022-12-05T17:56:52.037Z,0.79
2022-12-05T18:02:22.055Z,0.82
2022-12-05T18:07:46.190Z,0.85
2022-12-05T18:13:11.017Z,0.89
2022-12-05T18:18:39.027Z,0.92
2022-12-05T18:24:04.032Z,0.97
2022-12-05T18:29:35.031Z,1.00
2022-12-05T18:35:08.677Z,1.02
2022-12-05T18:40:37.117Z,1.03
2022-12-05T18:46:05.193Z,1.05
2022-12-05T18:51:35.036Z,1.06
2022-12-05T18:57:00.042Z,1.08
2022-12-05T19:02:25.095Z,1.11
2022-12-05T19:07:53.085Z,1.13
2022-12-05T19:13:18.206Z,1.13
2022-12-05T19:18:44.057Z,1.16
2022-12-05T19:24:12.050Z,1.18
2022-12-05T19:29:43.060Z,1.19
2022-12-05T19:35:08.055Z,1.20
2022-12-05T19:40:35.058Z,1.21
2022-12-05T19:46:00.207Z,1.21
2022-12-05T19:51:25.097Z,1.20
2022-12-05T19:56:53.144Z,1.21
2022-12-05T20:02:17.149Z,1.17
2022-12-05T20:07:42.265Z,1.12
2022-12-05T20:13:44.657Z,1.12
2022-12-05T20:18:55.097Z,1.13
2022-12-05T20:24:21.497Z,1.13
2022-12-05T20:29:55.084Z,1.14
2022-12-05T20:35:24.289Z,1.17
2022-12-05T20:40:49.075Z,1.18
2022-12-05T20:46:20.223Z,1.19
2022-12-05T20:51:46.119Z,1.20
2022-12-05T20:57:11.217Z,1.21
2022-12-05T21:02:38.151Z,1.23
2022-12-05T21:08:09.207Z,1.25
2022-12-05T21:13:41.270Z,1.23
2022-12-05T21:19:09.094Z,1.25
2022-12-05T21:24:35.092Z,1.23
2022-12-05T21:30:06.137Z,1.24
2022-12-05T21:35:34.133Z,1.24
2022-12-05T21:40:58.113Z,1.24
2022-12-05T21:46:23.418Z,1.25
2022-12-05T21:51:50.104Z,1.23
2022-12-05T21:57:15.149Z,1.23
2022-12-05T22:02:40.148Z,1.20
2022-12-05T22:08:08.191Z,1.18
2022-12-05T22:13:32.117Z,1.18
2022-12-05T22:18:57.106Z,1.19
2022-12-05T22:24:24.250Z,1.19
2022-12-05T22:29:55.136Z,1.22
2022-12-05T22:35:20.157Z,1.22
2022-12-05T22:40:47.134Z,1.23
2022-12-05T22:46:16.452Z,1.25
2022-12-05T22:51:40.146Z,1.25
2022-12-05T22:57:08.132Z,1.23
2022-12-05T23:02:32.172Z,1.22
2022-12-05T23:07:57.196Z,1.19
2022-12-05T23:13:26.283Z,1.13
2022-12-05T23:18:58.149Z,1.06
2022-12-05T23:24:24.130Z,1.03
2022-12-05T23:29:58.406Z,0.97
2022-12-05T23:35:24.159Z,0.98
2022-12-05T23:40:48.327Z,0.99
2022-12-05T23:46:17.215Z,0.97
2022-12-05T23:51:47.171Z,0.95
2022-12-05T23:57:17.277Z,0.89
